PWSweather.com
Personal Weather Stations
Station Observations
SELKIRK1
Ontario, Selkirk, ON N0A 1P0

OntarioSelkirk, ON N0A 1P0

Lat: 42.8083652, Lon: -79.94971040000001

Elevation: 583

Station Type: Acurite 5 in 1

http://gavinsurf.com

High Low Average
Temperature 82.1°F27.8°C 72.7°F22.6°C 75.5°F24.2°C
Dew Point 78.9°F26.1°C 72.4°F22.4°C 74.8°F23.8°C
Winds 9.2 mph 14.8 kmh Calm Calm 3.0 mph WSW4.8 kmh WSW
Wind Gusts 10.4 mph16.7 kmh -- 3.0 mph4.8 kmh
Humidity 99% 89% 98%
Pressure 31.33 in1061.0 mb 28.60 in968.5 mb -
Precipitation 0.04 in1.0 mm - -
Hour Temp Dew Point Humidity Winds Wind Gusts Pressure Precip Precip Rate Daily Precip Total
12:00 AM 74.9°F23.8°C 74.6°F23.7°C 99% 4.6 mph SW7.4 kmh SW 5.8 mph9.3 kmh 30.16 in1021.3 mb - 0.01 in0.3 mm 0.01 in0.3 mm
12:10 AM 74.9°F23.8°C 74.6°F23.7°C 99% 6.9 mph SSW11.1 kmh SSW 9.2 mph14.8 kmh 30.20 in1022.7 mb - 0.01 in0.3 mm 0.02 in0.5 mm
12:15 AM 75.0°F23.9°C 74.7°F23.7°C 99% 8.1 mph SW13.0 kmh SW 9.2 mph14.8 kmh 30.25 in1024.4 mb - 0.01 in0.3 mm 0.03 in0.8 mm
12:20 AM 75.0°F23.9°C 74.7°F23.7°C 99% 8.1 mph SW13.0 kmh SW 8.1 mph13.0 kmh 30.25 in1024.4 mb - 0.01 in0.3 mm 0.04 in1.0 mm
12:25 AM 75.0°F23.9°C 74.7°F23.7°C 99% 5.8 mph SSW9.3 kmh SSW 8.1 mph13.0 kmh 30.25 in1024.4 mb - 0.01 in0.3 mm 0.05 in1.3 mm
12:30 AM 74.9°F23.8°C 74.6°F23.7°C 99% 8.1 mph SW13.0 kmh SW 11.5 mph18.5 kmh 30.33 in1027.1 mb - 0.01 in0.3 mm 0.06 in1.5 mm
12:35 AM 74.9°F23.8°C 74.6°F23.7°C 99% 11.5 mph SW18.5 kmh SW 11.5 mph18.5 kmh 30.33 in1027.1 mb - 0.01 in0.3 mm 0.07 in1.8 mm
12:40 AM 74.7°F23.7°C 74.4°F23.6°C 99% 8.1 mph SW13.0 kmh SW 8.1 mph13.0 kmh 30.39 in1029.1 mb - 0.00 in0.0 mm 0.07 in1.8 mm
12:45 AM 74.3°F23.5°C 74.0°F23.3°C 99% 8.1 mph SSW13.0 kmh SSW 10.4 mph16.7 kmh 30.39 in1029.1 mb - 0.01 in0.3 mm 0.01 in0.3 mm
12:50 AM 74.3°F23.5°C 74.0°F23.3°C 99% 3.5 mph WSW5.6 kmh WSW 3.5 mph5.6 kmh 30.46 in1031.5 mb - 0.01 in0.3 mm 0.01 in0.3 mm
12:55 AM 74.3°F23.5°C 74.0°F23.3°C 99% 2.3 mph WSW3.7 kmh WSW 4.6 mph7.4 kmh 30.48 in1032.2 mb - 0.01 in0.3 mm 0.01 in0.3 mm
01:00 AM 74.1°F23.4°C 73.8°F23.2°C 99% 1.2 mph S1.9 kmh S 2.3 mph3.7 kmh 30.48 in1032.2 mb - 0.01 in0.3 mm 0.01 in0.3 mm
01:10 AM 74.1°F23.4°C 73.8°F23.2°C 99% 5.8 mph SW9.3 kmh SW 8.1 mph13.0 kmh 30.46 in1031.5 mb - 0.01 in0.3 mm 0.01 in0.3 mm
01:15 AM 74.1°F23.4°C 73.8°F23.2°C 99% 6.9 mph SW11.1 kmh SW 6.9 mph11.1 kmh 30.47 in1031.8 mb - 0.01 in0.3 mm 0.01 in0.3 mm
01:20 AM 74.3°F23.5°C 74.0°F23.3°C 99% 6.9 mph SW11.1 kmh SW 6.9 mph11.1 kmh 30.47 in1031.8 mb - 0.01 in0.3 mm 0.01 in0.3 mm
01:25 AM 74.3°F23.5°C 74.0°F23.3°C 99% 2.3 mph WSW3.7 kmh WSW 3.5 mph5.6 kmh 30.47 in1031.8 mb - 0.01 in0.3 mm 0.01 in0.3 mm
01:30 AM 74.3°F23.5°C 74.0°F23.3°C 99% 1.2 mph E1.9 kmh E -- 30.48 in1032.2 mb - 0.01 in0.3 mm 0.01 in0.3 mm
01:35 AM 74.1°F23.4°C 73.8°F23.2°C 99% 2.3 mph NNE3.7 kmh NNE 2.3 mph3.7 kmh 30.48 in1032.2 mb - 0.01 in0.3 mm 0.01 in0.3 mm
01:40 AM 74.0°F23.3°C 73.7°F23.2°C 99% 2.3 mph N3.7 kmh N 3.5 mph5.6 kmh 30.45 in1031.2 mb - 0.01 in0.3 mm 0.01 in0.3 mm
01:45 AM 74.0°F23.3°C 73.7°F23.2°C 99% Calm Calm 2.3 mph3.7 kmh 30.45 in1031.2 mb - 0.00 in0.0 mm 0.01 in0.3 mm
01:50 AM 73.8°F23.2°C 73.5°F23.1°C 99% 2.3 mph SSW3.7 kmh SSW 2.3 mph3.7 kmh 30.43 in1030.5 mb - 0.00 in0.0 mm 0.01 in0.3 mm
01:55 AM 73.8°F23.2°C 73.5°F23.1°C 99% Calm Calm -- 30.42 in1030.1 mb - 0.00 in0.0 mm 0.01 in0.3 mm
02:00 AM 73.7°F23.2°C 73.4°F23.0°C 99% Calm Calm -- 30.42 in1030.1 mb - 0.00 in0.0 mm 0.01 in0.3 mm
02:10 AM 73.8°F23.2°C 73.5°F23.1°C 99% Calm Calm -- 30.41 in1029.8 mb - 0.00 in0.0 mm 0.01 in0.3 mm
02:15 AM 73.8°F23.2°C 73.5°F23.1°C 99% Calm Calm 1.2 mph1.9 kmh 30.37 in1028.4 mb - 0.00 in0.0 mm 0.01 in0.3 mm
02:20 AM 73.6°F23.1°C 73.3°F22.9°C 99% 1.2 mph N1.9 kmh N 1.2 mph1.9 kmh 30.37 in1028.4 mb - 0.00 in0.0 mm 0.01 in0.3 mm
02:25 AM 73.6°F23.1°C 73.3°F22.9°C 99% Calm Calm -- 30.37 in1028.4 mb - 0.00 in0.0 mm 0.01 in0.3 mm
02:30 AM 73.6°F23.1°C 73.3°F22.9°C 99% Calm Calm 1.2 mph1.9 kmh 30.37 in1028.4 mb - 0.00 in0.0 mm 0.01 in0.3 mm
02:35 AM 73.6°F23.1°C 73.3°F22.9°C 99% 1.2 mph SW1.9 kmh SW 1.2 mph1.9 kmh 30.37 in1028.4 mb - 0.00 in0.0 mm 0.01 in0.3 mm
02:40 AM 73.6°F23.1°C 73.3°F22.9°C 99% 2.3 mph SSW3.7 kmh SSW 2.3 mph3.7 kmh 30.35 in1027.8 mb - 0.00 in0.0 mm 0.01 in0.3 mm
02:45 AM 73.8°F23.2°C 73.5°F23.1°C 99% 1.2 mph SW1.9 kmh SW 1.2 mph1.9 kmh 30.35 in1027.8 mb - 0.00 in0.0 mm 0.01 in0.3 mm
02:50 AM 73.8°F23.2°C 73.5°F23.1°C 99% Calm Calm 2.3 mph3.7 kmh 30.36 in1028.1 mb - 0.00 in0.0 mm 0.01 in0.3 mm
02:55 AM 73.8°F23.2°C 73.5°F23.1°C 99% 2.3 mph SW3.7 kmh SW 3.5 mph5.6 kmh 30.36 in1028.1 mb - 0.00 in0.0 mm 0.01 in0.3 mm
03:00 AM 73.8°F23.2°C 73.5°F23.1°C 99% 2.3 mph W3.7 kmh W 3.5 mph5.6 kmh 30.36 in1028.1 mb - 0.00 in0.0 mm 0.01 in0.3 mm
03:10 AM 73.8°F23.2°C 73.5°F23.1°C 99% 2.3 mph E3.7 kmh E 3.5 mph5.6 kmh 30.39 in1029.1 mb - 0.00 in0.0 mm 0.01 in0.3 mm
03:15 AM 73.8°F23.2°C 73.5°F23.1°C 99% 1.2 mph SE1.9 kmh SE 2.3 mph3.7 kmh 30.41 in1029.8 mb - 0.00 in0.0 mm 0.01 in0.3 mm
03:20 AM 73.8°F23.2°C 73.5°F23.1°C 99% Calm Calm 2.3 mph3.7 kmh 30.41 in1029.8 mb - 0.00 in0.0 mm 0.01 in0.3 mm
03:25 AM 73.8°F23.2°C 73.5°F23.1°C 99% 2.3 mph N3.7 kmh N 2.3 mph3.7 kmh 30.41 in1029.8 mb - 0.00 in0.0 mm 0.01 in0.3 mm
03:30 AM 73.8°F23.2°C 73.5°F23.1°C 99% 2.3 mph NNW3.7 kmh NNW 2.3 mph3.7 kmh 30.43 in1030.5 mb - 0.00 in0.0 mm 0.01 in0.3 mm
03:35 AM 73.8°F23.2°C 73.5°F23.1°C 99% 2.3 mph N3.7 kmh N 2.3 mph3.7 kmh 30.43 in1030.5 mb - 0.00 in0.0 mm 0.01 in0.3 mm
03:40 AM 73.8°F23.2°C 73.5°F23.1°C 99% 2.3 mph NNW3.7 kmh NNW 3.5 mph5.6 kmh 30.45 in1031.2 mb - 0.00 in0.0 mm 0.01 in0.3 mm
03:45 AM 73.8°F23.2°C 73.5°F23.1°C 99% 2.3 mph NW3.7 kmh NW 2.3 mph3.7 kmh 30.45 in1031.2 mb - 0.00 in0.0 mm 0.01 in0.3 mm
03:50 AM 73.8°F23.2°C 73.5°F23.1°C 99% 1.2 mph N1.9 kmh N 2.3 mph3.7 kmh 30.46 in1031.5 mb - 0.00 in0.0 mm 0.01 in0.3 mm
03:55 AM 73.6°F23.1°C 73.3°F22.9°C 99% 2.3 mph N3.7 kmh N 2.3 mph3.7 kmh 30.47 in1031.8 mb - 0.00 in0.0 mm 0.01 in0.3 mm
04:00 AM 73.6°F23.1°C 73.3°F22.9°C 99% 2.3 mph NW3.7 kmh NW 2.3 mph3.7 kmh 30.47 in1031.8 mb - 0.00 in0.0 mm 0.01 in0.3 mm
04:10 AM 73.4°F23.0°C 73.1°F22.8°C 99% 1.2 mph N1.9 kmh N 1.2 mph1.9 kmh 30.47 in1031.8 mb - 0.00 in0.0 mm 0.01 in0.3 mm
04:15 AM 73.4°F23.0°C 73.1°F22.8°C 99% 2.3 mph NNW3.7 kmh NNW 1.2 mph1.9 kmh 30.50 in1032.8 mb - 0.00 in0.0 mm 0.01 in0.3 mm
04:20 AM 73.4°F23.0°C 73.1°F22.8°C 99% 2.3 mph NNW3.7 kmh NNW 2.3 mph3.7 kmh 30.50 in1032.8 mb - 0.00 in0.0 mm 0.01 in0.3 mm
04:25 AM 73.4°F23.0°C 73.1°F22.8°C 99% 2.3 mph NNW3.7 kmh NNW 2.3 mph3.7 kmh 30.50 in1032.8 mb - 0.00 in0.0 mm 0.01 in0.3 mm
04:30 AM 73.4°F23.0°C 73.1°F22.8°C 99% 1.2 mph N1.9 kmh N 1.2 mph1.9 kmh 30.52 in1033.5 mb - 0.00 in0.0 mm 0.01 in0.3 mm
04:35 AM 73.4°F23.0°C 73.1°F22.8°C 99% Calm Calm -- 30.52 in1033.5 mb - 0.00 in0.0 mm 0.01 in0.3 mm
04:40 AM 73.4°F23.0°C 73.1°F22.8°C 99% Calm Calm -- 30.52 in1033.5 mb - 0.00 in0.0 mm 0.01 in0.3 mm
04:45 AM 73.4°F23.0°C 73.1°F22.8°C 99% 1.2 mph N1.9 kmh N 2.3 mph3.7 kmh 30.52 in1033.5 mb - 0.00 in0.0 mm 0.01 in0.3 mm
04:50 AM 73.4°F23.0°C 73.1°F22.8°C 99% 2.3 mph NNW3.7 kmh NNW 3.5 mph5.6 kmh 30.53 in1033.9 mb - 0.00 in0.0 mm 0.01 in0.3 mm
04:55 AM 73.4°F23.0°C 73.1°F22.8°C 99% 1.2 mph NNW1.9 kmh NNW 2.3 mph3.7 kmh 30.54 in1034.2 mb - 0.00 in0.0 mm 0.01 in0.3 mm
05:00 AM 73.4°F23.0°C 73.1°F22.8°C 99% 1.2 mph N1.9 kmh N 2.3 mph3.7 kmh 30.54 in1034.2 mb - 0.00 in0.0 mm 0.01 in0.3 mm
05:10 AM 73.4°F23.0°C 73.1°F22.8°C 99% Calm Calm -- 30.55 in1034.5 mb - 0.00 in0.0 mm 0.01 in0.3 mm
05:15 AM 73.4°F23.0°C 73.1°F22.8°C 99% Calm Calm -- 30.55 in1034.5 mb - 0.00 in0.0 mm 0.01 in0.3 mm
05:20 AM 73.6°F23.1°C 73.3°F22.9°C 99% 1.2 mph N1.9 kmh N 1.2 mph1.9 kmh 30.55 in1034.5 mb - 0.00 in0.0 mm 0.01 in0.3 mm
05:25 AM 73.6°F23.1°C 73.3°F22.9°C 99% 1.2 mph N1.9 kmh N 1.2 mph1.9 kmh 30.55 in1034.5 mb - 0.00 in0.0 mm 0.01 in0.3 mm
05:30 AM 73.6°F23.1°C 73.3°F22.9°C 99% Calm Calm 1.2 mph1.9 kmh 30.55 in1034.5 mb - 0.00 in0.0 mm 0.01 in0.3 mm
05:35 AM 73.6°F23.1°C 73.3°F22.9°C 99% 1.2 mph NNW1.9 kmh NNW 2.3 mph3.7 kmh 30.55 in1034.5 mb - 0.00 in0.0 mm 0.01 in0.3 mm
05:40 AM 73.6°F23.1°C 73.3°F22.9°C 99% 1.2 mph N1.9 kmh N 2.3 mph3.7 kmh 30.55 in1034.5 mb - 0.00 in0.0 mm 0.01 in0.3 mm
05:45 AM 73.6°F23.1°C 73.3°F22.9°C 99% 1.2 mph N1.9 kmh N 1.2 mph1.9 kmh 30.55 in1034.5 mb - 0.00 in0.0 mm 0.01 in0.3 mm
05:50 AM 73.6°F23.1°C 73.3°F22.9°C 99% 2.3 mph N3.7 kmh N 2.3 mph3.7 kmh 30.57 in1035.2 mb - 0.01 in0.3 mm 0.02 in0.5 mm
05:55 AM 73.4°F23.0°C 73.1°F22.8°C 99% 2.3 mph N3.7 kmh N 1.2 mph1.9 kmh 30.59 in1035.9 mb - 0.01 in0.3 mm 0.02 in0.5 mm
06:00 AM 73.4°F23.0°C 73.1°F22.8°C 99% Calm Calm -- 30.59 in1035.9 mb - 0.01 in0.3 mm 0.02 in0.5 mm
06:10 AM 73.4°F23.0°C 73.1°F22.8°C 99% 1.2 mph N1.9 kmh N 2.3 mph3.7 kmh 30.63 in1037.3 mb - 0.01 in0.3 mm 0.02 in0.5 mm
06:15 AM 73.2°F22.9°C 72.9°F22.7°C 99% 2.3 mph NNW3.7 kmh NNW 3.5 mph5.6 kmh 30.64 in1037.6 mb - 0.01 in0.3 mm 0.02 in0.5 mm
06:20 AM 73.1°F22.8°C 72.8°F22.7°C 99% 3.5 mph NW5.6 kmh NW 3.5 mph5.6 kmh 30.64 in1037.6 mb - 0.01 in0.3 mm 0.02 in0.5 mm
06:25 AM 73.1°F22.8°C 72.8°F22.7°C 99% 2.3 mph N3.7 kmh N 3.5 mph5.6 kmh 30.64 in1037.6 mb - 0.01 in0.3 mm 0.02 in0.5 mm
06:30 AM 72.9°F22.7°C 72.6°F22.6°C 99% 3.5 mph N5.6 kmh N 3.5 mph5.6 kmh 30.68 in1038.9 mb - 0.02 in0.5 mm 0.03 in0.8 mm
06:35 AM 72.9°F22.7°C 72.6°F22.6°C 99% 2.3 mph NW3.7 kmh NW 5.8 mph9.3 kmh 30.68 in1038.9 mb - 0.02 in0.5 mm 0.03 in0.8 mm
06:40 AM 72.8°F22.7°C 72.5°F22.5°C 99% 2.3 mph NW3.7 kmh NW 3.5 mph5.6 kmh 30.70 in1039.6 mb - 0.02 in0.5 mm 0.03 in0.8 mm
06:45 AM 72.7°F22.6°C 72.4°F22.4°C 99% 1.2 mph NNW1.9 kmh NNW 2.3 mph3.7 kmh 30.70 in1039.6 mb - 0.02 in0.5 mm 0.03 in0.8 mm
06:50 AM 72.7°F22.6°C 72.4°F22.4°C 99% 2.3 mph N3.7 kmh N 3.5 mph5.6 kmh 30.72 in1040.3 mb - 0.01 in0.3 mm 0.03 in0.8 mm
06:55 AM 72.7°F22.6°C 72.4°F22.4°C 99% 2.3 mph NNW3.7 kmh NNW 3.5 mph5.6 kmh 30.77 in1042.0 mb - 0.01 in0.3 mm 0.03 in0.8 mm
07:00 AM 72.7°F22.6°C 72.4°F22.4°C 99% 2.3 mph NNW3.7 kmh NNW 2.3 mph3.7 kmh 30.77 in1042.0 mb - 0.01 in0.3 mm 0.03 in0.8 mm
07:10 AM 72.7°F22.6°C 72.4°F22.4°C 99% 1.2 mph N1.9 kmh N 1.2 mph1.9 kmh 30.83 in1044.0 mb - 0.01 in0.3 mm 0.03 in0.8 mm
07:15 AM 72.7°F22.6°C 72.4°F22.4°C 99% Calm Calm -- 30.84 in1044.4 mb - 0.01 in0.3 mm 0.03 in0.8 mm
07:20 AM 72.7°F22.6°C 72.4°F22.4°C 99% 1.2 mph N1.9 kmh N 1.2 mph1.9 kmh 30.84 in1044.4 mb - 0.01 in0.3 mm 0.03 in0.8 mm
07:25 AM 72.7°F22.6°C 72.4°F22.4°C 99% 2.3 mph NW3.7 kmh NW 3.5 mph5.6 kmh 30.84 in1044.4 mb - 0.01 in0.3 mm 0.03 in0.8 mm
07:30 AM 72.7°F22.6°C 72.4°F22.4°C 99% 2.3 mph N3.7 kmh N 3.5 mph5.6 kmh 30.85 in1044.7 mb - 0.01 in0.3 mm 0.03 in0.8 mm
07:35 AM 72.7°F22.6°C 72.4°F22.4°C 99% 3.5 mph N5.6 kmh N 2.3 mph3.7 kmh 30.85 in1044.7 mb - 0.00 in0.0 mm 0.03 in0.8 mm
07:40 AM 72.7°F22.6°C 72.4°F22.4°C 99% 2.3 mph N3.7 kmh N 3.5 mph5.6 kmh 30.93 in1047.4 mb - 0.00 in0.0 mm 0.03 in0.8 mm
07:45 AM 72.7°F22.6°C 72.4°F22.4°C 99% 2.3 mph N3.7 kmh N 2.3 mph3.7 kmh 30.93 in1047.4 mb - 0.00 in0.0 mm 0.03 in0.8 mm
07:50 AM 72.7°F22.6°C 72.4°F22.4°C 99% 5.8 mph N9.3 kmh N 5.8 mph9.3 kmh 30.96 in1048.4 mb - 0.00 in0.0 mm 0.03 in0.8 mm
07:55 AM 72.7°F22.6°C 72.4°F22.4°C 99% 3.5 mph N5.6 kmh N 3.5 mph5.6 kmh 31.03 in1050.8 mb - 0.00 in0.0 mm 0.03 in0.8 mm
08:00 AM 72.7°F22.6°C 72.4°F22.4°C 99% 1.2 mph NW1.9 kmh NW 2.3 mph3.7 kmh 31.03 in1050.8 mb - 0.00 in0.0 mm 0.03 in0.8 mm
08:10 AM 72.9°F22.7°C 72.6°F22.6°C 99% 2.3 mph NNW3.7 kmh NNW 2.3 mph3.7 kmh 31.19 in1056.2 mb - 0.00 in0.0 mm 0.03 in0.8 mm
08:15 AM 73.1°F22.8°C 72.8°F22.7°C 99% 2.3 mph N3.7 kmh N 1.2 mph1.9 kmh 31.20 in1056.6 mb - 0.00 in0.0 mm 0.03 in0.8 mm
08:20 AM 73.1°F22.8°C 72.8°F22.7°C 99% 2.3 mph NNW3.7 kmh NNW 2.3 mph3.7 kmh 31.20 in1056.6 mb - 0.00 in0.0 mm 0.03 in0.8 mm
08:25 AM 73.2°F22.9°C 72.9°F22.7°C 99% 3.5 mph N5.6 kmh N 4.6 mph7.4 kmh 31.20 in1056.6 mb - 0.00 in0.0 mm 0.03 in0.8 mm
08:30 AM 73.2°F22.9°C 72.9°F22.7°C 99% 2.3 mph NNW3.7 kmh NNW 2.3 mph3.7 kmh 31.24 in1057.9 mb - 0.00 in0.0 mm 0.03 in0.8 mm
08:35 AM 73.4°F23.0°C 73.1°F22.8°C 99% 2.3 mph N3.7 kmh N 2.3 mph3.7 kmh 31.24 in1057.9 mb - 0.00 in0.0 mm 0.03 in0.8 mm
08:40 AM 73.4°F23.0°C 73.1°F22.8°C 99% 2.3 mph N3.7 kmh N 2.3 mph3.7 kmh 31.27 in1058.9 mb - 0.00 in0.0 mm 0.03 in0.8 mm
08:45 AM 73.4°F23.0°C 73.1°F22.8°C 99% 2.3 mph N3.7 kmh N 2.3 mph3.7 kmh 31.27 in1058.9 mb - 0.00 in0.0 mm 0.03 in0.8 mm
08:50 AM 73.8°F23.2°C 73.5°F23.1°C 99% Calm Calm -- 31.32 in1060.6 mb - 0.00 in0.0 mm 0.03 in0.8 mm
08:55 AM 74.5°F23.6°C 74.2°F23.4°C 99% 2.3 mph N3.7 kmh N 2.3 mph3.7 kmh 31.33 in1061.0 mb - 0.00 in0.0 mm 0.03 in0.8 mm
09:00 AM 74.5°F23.6°C 73.9°F23.3°C 98% 3.5 mph N5.6 kmh N 3.5 mph5.6 kmh 31.33 in1061.0 mb - 0.00 in0.0 mm 0.03 in0.8 mm
09:10 AM 74.9°F23.8°C 74.3°F23.5°C 98% 1.2 mph N1.9 kmh N 1.2 mph1.9 kmh 31.26 in1058.6 mb - 0.00 in0.0 mm 0.03 in0.8 mm
09:15 AM 74.7°F23.7°C 74.1°F23.4°C 98% 1.2 mph N1.9 kmh N 2.3 mph3.7 kmh 31.25 in1058.2 mb - 0.00 in0.0 mm 0.03 in0.8 mm
09:20 AM 74.7°F23.7°C 74.1°F23.4°C 98% 1.2 mph N1.9 kmh N 2.3 mph3.7 kmh 31.25 in1058.2 mb - 0.00 in0.0 mm 0.03 in0.8 mm
09:25 AM 74.7°F23.7°C 74.4°F23.6°C 99% Calm Calm 1.2 mph1.9 kmh 31.25 in1058.2 mb - 0.00 in0.0 mm 0.03 in0.8 mm
09:30 AM 75.4°F24.1°C 74.8°F23.8°C 98% 1.2 mph N1.9 kmh N 1.2 mph1.9 kmh 31.17 in1055.5 mb - 0.00 in0.0 mm 0.03 in0.8 mm
09:35 AM 76.5°F24.7°C 74.9°F23.8°C 95% 2.3 mph N3.7 kmh N 2.3 mph3.7 kmh 31.17 in1055.5 mb - 0.00 in0.0 mm 0.03 in0.8 mm
09:40 AM 76.1°F24.5°C 74.9°F23.8°C 96% Calm Calm 1.2 mph1.9 kmh 31.20 in1056.6 mb - 0.00 in0.0 mm 0.03 in0.8 mm
09:45 AM 76.2°F24.6°C 75.0°F23.9°C 96% Calm Calm 2.3 mph3.7 kmh 31.20 in1056.6 mb - 0.00 in0.0 mm 0.03 in0.8 mm
09:50 AM 76.1°F24.5°C 75.2°F24.0°C 97% Calm Calm -- 31.22 in1057.2 mb - 0.00 in0.0 mm 0.03 in0.8 mm
09:55 AM 76.0°F24.4°C 74.8°F23.8°C 96% Calm Calm -- 31.22 in1057.2 mb - 0.00 in0.0 mm 0.03 in0.8 mm
10:00 AM 75.9°F24.4°C 74.6°F23.7°C 96% 1.2 mph NNE1.9 kmh NNE 3.5 mph5.6 kmh 31.22 in1057.2 mb - 0.00 in0.0 mm 0.03 in0.8 mm
10:10 AM 75.0°F23.9°C 74.4°F23.6°C 98% 3.5 mph SSW5.6 kmh SSW 3.5 mph5.6 kmh 31.18 in1055.9 mb - 0.00 in0.0 mm 0.03 in0.8 mm
10:15 AM 74.9°F23.8°C 74.3°F23.5°C 98% 3.5 mph S5.6 kmh S 3.5 mph5.6 kmh 31.12 in1053.8 mb - 0.00 in0.0 mm 0.03 in0.8 mm
10:20 AM 74.9°F23.8°C 74.3°F23.5°C 98% 2.3 mph S3.7 kmh S 2.3 mph3.7 kmh 31.12 in1053.8 mb - 0.00 in0.0 mm 0.03 in0.8 mm
10:25 AM 74.9°F23.8°C 74.3°F23.5°C 98% 2.3 mph S3.7 kmh S 3.5 mph5.6 kmh 31.12 in1053.8 mb - 0.00 in0.0 mm 0.03 in0.8 mm
10:30 AM 75.0°F23.9°C 74.4°F23.6°C 98% 2.3 mph S3.7 kmh S 2.3 mph3.7 kmh 31.05 in1051.5 mb - 0.00 in0.0 mm 0.03 in0.8 mm
10:35 AM 75.2°F24.0°C 74.6°F23.7°C 98% 2.3 mph SSW3.7 kmh SSW 2.3 mph3.7 kmh 31.05 in1051.5 mb - 0.00 in0.0 mm 0.03 in0.8 mm
10:40 AM 75.0°F23.9°C 74.4°F23.6°C 98% 3.5 mph SSW5.6 kmh SSW 3.5 mph5.6 kmh 30.96 in1048.4 mb - 0.00 in0.0 mm 0.03 in0.8 mm
10:45 AM 74.8°F23.8°C 74.2°F23.4°C 98% 4.6 mph SSW7.4 kmh SSW 4.6 mph7.4 kmh 30.96 in1048.4 mb - 0.00 in0.0 mm 0.03 in0.8 mm
10:50 AM 74.7°F23.7°C 74.4°F23.6°C 99% 3.5 mph S5.6 kmh S 3.5 mph5.6 kmh 30.93 in1047.4 mb - 0.00 in0.0 mm 0.03 in0.8 mm
10:55 AM 74.8°F23.8°C 74.5°F23.6°C 99% 3.5 mph SSW5.6 kmh SSW 3.5 mph5.6 kmh 30.93 in1047.4 mb - 0.00 in0.0 mm 0.03 in0.8 mm
11:00 AM 74.9°F23.8°C 74.6°F23.7°C 99% 2.3 mph SSW3.7 kmh SSW 3.5 mph5.6 kmh 30.93 in1047.4 mb - 0.00 in0.0 mm 0.03 in0.8 mm
11:10 AM 74.9°F23.8°C 74.6°F23.7°C 99% 2.3 mph SSW3.7 kmh SSW 2.3 mph3.7 kmh 30.87 in1045.4 mb - 0.00 in0.0 mm 0.03 in0.8 mm
11:15 AM 74.9°F23.8°C 74.6°F23.7°C 99% 2.3 mph S3.7 kmh S 2.3 mph3.7 kmh 30.87 in1045.4 mb - 0.00 in0.0 mm 0.03 in0.8 mm
11:20 AM 75.2°F24.0°C 74.9°F23.8°C 99% 2.3 mph SSW3.7 kmh SSW 3.5 mph5.6 kmh 30.87 in1045.4 mb - 0.00 in0.0 mm 0.03 in0.8 mm
11:25 AM 75.2°F24.0°C 74.6°F23.7°C 98% 2.3 mph SSW3.7 kmh SSW 2.3 mph3.7 kmh 30.86 in1045.0 mb - 0.00 in0.0 mm 0.03 in0.8 mm
11:30 AM 75.2°F24.0°C 74.6°F23.7°C 98% 2.3 mph SSW3.7 kmh SSW 2.3 mph3.7 kmh 30.83 in1044.0 mb - 0.00 in0.0 mm 0.03 in0.8 mm
11:35 AM 75.0°F23.9°C 74.4°F23.6°C 98% 3.5 mph SSW5.6 kmh SSW 3.5 mph5.6 kmh 30.83 in1044.0 mb - 0.00 in0.0 mm 0.03 in0.8 mm
11:40 AM 75.2°F24.0°C 74.6°F23.7°C 98% 2.3 mph SSW3.7 kmh SSW 3.5 mph5.6 kmh 30.79 in1042.7 mb - 0.00 in0.0 mm 0.03 in0.8 mm
11:45 AM 75.2°F24.0°C 74.9°F23.8°C 99% 2.3 mph SSW3.7 kmh SSW 3.5 mph5.6 kmh 30.79 in1042.7 mb - 0.00 in0.0 mm 0.03 in0.8 mm
11:50 AM 75.0°F23.9°C 74.7°F23.7°C 99% 1.2 mph S1.9 kmh S 2.3 mph3.7 kmh 30.78 in1042.3 mb - 0.00 in0.0 mm 0.03 in0.8 mm
11:55 AM 75.0°F23.9°C 74.7°F23.7°C 99% 2.3 mph SW3.7 kmh SW 2.3 mph3.7 kmh 30.77 in1042.0 mb - 0.00 in0.0 mm 0.03 in0.8 mm
12:00 PM 75.0°F23.9°C 74.7°F23.7°C 99% 2.3 mph SW3.7 kmh SW 2.3 mph3.7 kmh 30.77 in1042.0 mb - 0.00 in0.0 mm 0.03 in0.8 mm
12:10 PM 74.9°F23.8°C 74.6°F23.7°C 99% 2.3 mph SSW3.7 kmh SSW 2.3 mph3.7 kmh 30.75 in1041.3 mb - 0.01 in0.3 mm 0.04 in1.0 mm
12:15 PM 75.0°F23.9°C 74.7°F23.7°C 99% 1.2 mph SSW1.9 kmh SSW 1.2 mph1.9 kmh 30.73 in1040.6 mb - 0.01 in0.3 mm 0.04 in1.0 mm
12:20 PM 75.4°F24.1°C 75.1°F23.9°C 99% 2.3 mph S3.7 kmh S 2.3 mph3.7 kmh 30.73 in1040.6 mb - 0.01 in0.3 mm 0.04 in1.0 mm
12:25 PM 76.5°F24.7°C 75.9°F24.4°C 98% 2.3 mph SW3.7 kmh SW 2.3 mph3.7 kmh 30.72 in1040.3 mb - 0.01 in0.3 mm 0.04 in1.0 mm
12:30 PM 77.6°F25.3°C 76.0°F24.4°C 95% 3.5 mph SW5.6 kmh SW 3.5 mph5.6 kmh 30.65 in1037.9 mb - 0.01 in0.3 mm 0.04 in1.0 mm
12:35 PM 77.4°F25.2°C 76.1°F24.5°C 96% 4.6 mph SSW7.4 kmh SSW 5.8 mph9.3 kmh 30.65 in1037.9 mb - 0.01 in0.3 mm 0.04 in1.0 mm
12:40 PM 78.3°F25.7°C 76.7°F24.8°C 95% 2.3 mph SSW3.7 kmh SSW 3.5 mph5.6 kmh 30.55 in1034.5 mb - 0.01 in0.3 mm 0.04 in1.0 mm
12:45 PM 79.0°F26.1°C 77.1°F25.1°C 94% 3.5 mph SSW5.6 kmh SSW 4.6 mph7.4 kmh 30.55 in1034.5 mb - 0.01 in0.3 mm 0.04 in1.0 mm
12:50 PM 79.2°F26.2°C 76.7°F24.8°C 92% 3.5 mph SSW5.6 kmh SSW 3.5 mph5.6 kmh 30.48 in1032.2 mb - 0.01 in0.3 mm 0.04 in1.0 mm
12:55 PM 79.0°F26.1°C 76.2°F24.6°C 91% 3.5 mph SSW5.6 kmh SSW 4.6 mph7.4 kmh 30.42 in1030.1 mb - 0.01 in0.3 mm 0.04 in1.0 mm
01:00 PM 78.6°F25.9°C 76.1°F24.5°C 92% 3.5 mph S5.6 kmh S 3.5 mph5.6 kmh 30.42 in1030.1 mb - 0.01 in0.3 mm 0.04 in1.0 mm
01:10 PM 78.1°F25.6°C 75.9°F24.4°C 93% 3.5 mph SW5.6 kmh SW 3.5 mph5.6 kmh 30.29 in1025.7 mb - 0.00 in0.0 mm 0.04 in1.0 mm
01:15 PM 78.1°F25.6°C 76.2°F24.6°C 94% 3.5 mph SSW5.6 kmh SSW 3.5 mph5.6 kmh 30.18 in1022.0 mb - 0.00 in0.0 mm 0.04 in1.0 mm
01:20 PM 78.6°F25.9°C 76.7°F24.8°C 94% 2.3 mph SW3.7 kmh SW 3.5 mph5.6 kmh 30.18 in1022.0 mb - 0.00 in0.0 mm 0.04 in1.0 mm
01:25 PM 80.1°F26.7°C 77.2°F25.1°C 91% 3.5 mph SSW5.6 kmh SSW 3.5 mph5.6 kmh 30.18 in1022.0 mb - 0.00 in0.0 mm 0.04 in1.0 mm
01:30 PM 81.0°F27.2°C 77.4°F25.2°C 89% 3.5 mph SSW5.6 kmh SSW 4.6 mph7.4 kmh 30.05 in1017.6 mb - 0.00 in0.0 mm 0.04 in1.0 mm
01:35 PM 79.6°F26.4°C 76.8°F24.9°C 91% 3.5 mph S5.6 kmh S 3.5 mph5.6 kmh 30.05 in1017.6 mb - 0.00 in0.0 mm 0.04 in1.0 mm
01:40 PM 80.3°F26.8°C 77.1°F25.1°C 90% 4.6 mph S7.4 kmh S 5.8 mph9.3 kmh 29.88 in1011.9 mb - 0.00 in0.0 mm 0.04 in1.0 mm
01:45 PM 80.5°F26.9°C 77.3°F25.2°C 90% 5.8 mph SSW9.3 kmh SSW 5.8 mph9.3 kmh 29.88 in1011.9 mb - 0.00 in0.0 mm 0.04 in1.0 mm
01:50 PM 80.3°F26.8°C 77.1°F25.1°C 90% 4.6 mph SSW7.4 kmh SSW 5.8 mph9.3 kmh 29.83 in1010.2 mb - 0.00 in0.0 mm 0.04 in1.0 mm
01:55 PM 80.7°F27.1°C 77.5°F25.3°C 90% 3.5 mph SSW5.6 kmh SSW 4.6 mph7.4 kmh 29.73 in1006.8 mb - 0.00 in0.0 mm 0.04 in1.0 mm
02:00 PM 81.6°F27.6°C 78.1°F25.6°C 89% 3.5 mph SSW5.6 kmh SSW 4.6 mph7.4 kmh 29.73 in1006.8 mb - 0.00 in0.0 mm 0.04 in1.0 mm
02:10 PM 80.8°F27.1°C 77.9°F25.5°C 91% 4.6 mph SSW7.4 kmh SSW 5.8 mph9.3 kmh 29.56 in1001.0 mb - 0.00 in0.0 mm 0.04 in1.0 mm
02:15 PM 81.0°F27.2°C 77.8°F25.4°C 90% 4.6 mph SSW7.4 kmh SSW 4.6 mph7.4 kmh 29.41 in995.9 mb - 0.00 in0.0 mm 0.04 in1.0 mm
02:20 PM 81.3°F27.4°C 78.1°F25.6°C 90% 4.6 mph S7.4 kmh S 4.6 mph7.4 kmh 29.41 in995.9 mb - 0.00 in0.0 mm 0.04 in1.0 mm
02:25 PM 81.9°F27.7°C 78.3°F25.7°C 89% 4.6 mph SSW7.4 kmh SSW 4.6 mph7.4 kmh 29.41 in995.9 mb - 0.00 in0.0 mm 0.04 in1.0 mm
02:30 PM 81.2°F27.3°C 77.7°F25.4°C 89% 4.6 mph S7.4 kmh S 5.8 mph9.3 kmh 29.23 in989.8 mb - 0.00 in0.0 mm 0.04 in1.0 mm
02:35 PM 80.8°F27.1°C 77.6°F25.3°C 90% 4.6 mph SSW7.4 kmh SSW 5.8 mph9.3 kmh 29.23 in989.8 mb - 0.00 in0.0 mm 0.04 in1.0 mm
02:40 PM 81.3°F27.4°C 78.1°F25.6°C 90% 4.6 mph SW7.4 kmh SW 5.8 mph9.3 kmh 29.07 in984.4 mb - 0.00 in0.0 mm 0.04 in1.0 mm
02:45 PM 82.1°F27.8°C 78.9°F26.1°C 90% 3.5 mph SW5.6 kmh SW 5.8 mph9.3 kmh 29.07 in984.4 mb - 0.00 in0.0 mm 0.04 in1.0 mm
02:50 PM 81.4°F27.4°C 78.2°F25.7°C 90% 4.6 mph SW7.4 kmh SW 5.8 mph9.3 kmh 29.02 in982.7 mb - 0.00 in0.0 mm 0.04 in1.0 mm
02:55 PM 82.0°F27.8°C 78.8°F26.0°C 90% 4.6 mph S7.4 kmh S 6.9 mph11.1 kmh 28.89 in978.3 mb - 0.00 in0.0 mm 0.04 in1.0 mm
03:00 PM 81.9°F27.7°C 78.7°F25.9°C 90% 5.8 mph SW9.3 kmh SW 6.9 mph11.1 kmh 28.89 in978.3 mb - 0.00 in0.0 mm 0.04 in1.0 mm
03:10 PM 82.0°F27.8°C 78.5°F25.8°C 89% 6.9 mph SW11.1 kmh SW 9.2 mph14.8 kmh 28.71 in972.2 mb - 0.00 in0.0 mm 0.04 in1.0 mm
03:15 PM 81.7°F27.6°C 78.5°F25.8°C 90% 5.8 mph S9.3 kmh S 6.9 mph11.1 kmh 28.60 in968.5 mb - 0.00 in0.0 mm 0.04 in1.0 mm
03:20 PM 81.2°F27.3°C 78.3°F25.7°C 91% 6.9 mph SW11.1 kmh SW 6.9 mph11.1 kmh 28.60 in968.5 mb - 0.00 in0.0 mm 0.04 in1.0 mm
03:25 PM 80.1°F26.7°C 77.9°F25.5°C 93% 6.9 mph SW11.1 kmh SW 6.9 mph11.1 kmh 28.60 in968.5 mb - 0.00 in0.0 mm 0.04 in1.0 mm
03:30 PM 79.4°F26.3°C 77.5°F25.3°C 94% 5.8 mph SSW9.3 kmh SSW 6.9 mph11.1 kmh 28.67 in970.9 mb - 0.00 in0.0 mm 0.04 in1.0 mm
03:35 PM 80.0°F26.7°C 77.8°F25.4°C 93% 8.1 mph SW13.0 kmh SW 8.1 mph13.0 kmh 28.67 in970.9 mb - 0.00 in0.0 mm 0.04 in1.0 mm
03:40 PM 80.4°F26.9°C 78.2°F25.7°C 93% 6.9 mph SSW11.1 kmh SSW 8.1 mph13.0 kmh 28.78 in974.6 mb - 0.00 in0.0 mm 0.04 in1.0 mm
03:45 PM 80.5°F26.9°C 78.2°F25.7°C 93% 6.9 mph SW11.1 kmh SW 6.9 mph11.1 kmh 28.78 in974.6 mb - 0.00 in0.0 mm 0.04 in1.0 mm
03:50 PM 80.6°F27.0°C 78.4°F25.8°C 93% 8.1 mph SW13.0 kmh SW 8.1 mph13.0 kmh 28.77 in974.3 mb - 0.00 in0.0 mm 0.04 in1.0 mm
03:55 PM 79.7°F26.5°C 78.1°F25.6°C 95% 6.9 mph SW11.1 kmh SW 6.9 mph11.1 kmh 28.77 in974.3 mb - 0.00 in0.0 mm 0.04 in1.0 mm
04:00 PM 79.4°F26.3°C 77.9°F25.5°C 95% 6.9 mph SW11.1 kmh SW 6.9 mph11.1 kmh 28.77 in974.3 mb - 0.00 in0.0 mm 0.04 in1.0 mm
04:10 PM 78.4°F25.8°C 77.4°F25.2°C 97% 8.1 mph WSW13.0 kmh WSW 8.1 mph13.0 kmh 28.84 in976.6 mb - 0.00 in0.0 mm 0.04 in1.0 mm
04:15 PM 78.1°F25.6°C 77.2°F25.1°C 97% 8.1 mph SW13.0 kmh SW 8.1 mph13.0 kmh 29.05 in983.7 mb - 0.00 in0.0 mm 0.04 in1.0 mm
04:20 PM 78.1°F25.6°C 77.5°F25.3°C 98% 6.9 mph SW11.1 kmh SW 8.1 mph13.0 kmh 29.05 in983.7 mb - 0.00 in0.0 mm 0.04 in1.0 mm
04:25 PM 78.5°F25.8°C 77.3°F25.2°C 96% 8.1 mph SW13.0 kmh SW 9.2 mph14.8 kmh 29.05 in983.7 mb - 0.00 in0.0 mm 0.04 in1.0 mm
04:30 PM 78.5°F25.8°C 77.6°F25.3°C 97% 6.9 mph SSW11.1 kmh SSW 8.1 mph13.0 kmh 29.20 in988.8 mb - 0.00 in0.0 mm 0.04 in1.0 mm
04:35 PM 78.6°F25.9°C 77.7°F25.4°C 97% 8.1 mph SW13.0 kmh SW 9.2 mph14.8 kmh 29.20 in988.8 mb - 0.00 in0.0 mm 0.04 in1.0 mm
04:40 PM 79.2°F26.2°C 77.6°F25.3°C 95% 6.9 mph SSW11.1 kmh SSW 6.9 mph11.1 kmh 29.39 in995.3 mb - 0.00 in0.0 mm 0.04 in1.0 mm
04:45 PM 79.4°F26.3°C 77.8°F25.4°C 95% 8.1 mph SW13.0 kmh SW 10.4 mph16.7 kmh 29.39 in995.3 mb - 0.00 in0.0 mm 0.04 in1.0 mm
04:50 PM 78.3°F25.7°C 77.4°F25.2°C 97% 9.2 mph SSW14.8 kmh SSW 10.4 mph16.7 kmh 29.43 in996.6 mb - 0.00 in0.0 mm 0.04 in1.0 mm
04:55 PM 78.0°F25.6°C 77.1°F25.1°C 97% 8.1 mph SW13.0 kmh SW 9.2 mph14.8 kmh 29.46 in997.6 mb - 0.00 in0.0 mm 0.04 in1.0 mm
05:00 PM 78.3°F25.7°C 77.3°F25.2°C 97% 8.1 mph SW13.0 kmh SW 9.2 mph14.8 kmh 29.46 in997.6 mb - 0.00 in0.0 mm 0.04 in1.0 mm
05:10 PM 77.6°F25.3°C 77.0°F25.0°C 98% 9.2 mph SW14.8 kmh SW 9.2 mph14.8 kmh 29.63 in1003.4 mb - 0.00 in0.0 mm 0.04 in1.0 mm
05:15 PM 77.2°F25.1°C 76.9°F24.9°C 99% 6.9 mph SW11.1 kmh SW 8.1 mph13.0 kmh 29.86 in1011.2 mb - 0.00 in0.0 mm 0.04 in1.0 mm
05:20 PM 77.2°F25.1°C 76.9°F24.9°C 99% 8.1 mph SSW13.0 kmh SSW 9.2 mph14.8 kmh 29.86 in1011.2 mb - 0.00 in0.0 mm 0.04 in1.0 mm
05:25 PM 77.2°F25.1°C 76.9°F24.9°C 99% 8.1 mph SW13.0 kmh SW 8.1 mph13.0 kmh 29.86 in1011.2 mb - 0.00 in0.0 mm 0.04 in1.0 mm
05:30 PM 77.0°F25.0°C 76.7°F24.8°C 99% 8.1 mph SW13.0 kmh SW 9.2 mph14.8 kmh 29.87 in1011.5 mb - 0.00 in0.0 mm 0.04 in1.0 mm
05:35 PM 76.8°F24.9°C 76.5°F24.7°C 99% 6.9 mph SW11.1 kmh SW 8.1 mph13.0 kmh 29.87 in1011.5 mb - 0.00 in0.0 mm 0.04 in1.0 mm
05:40 PM 76.8°F24.9°C 76.5°F24.7°C 99% 3.5 mph S5.6 kmh S 4.6 mph7.4 kmh 29.89 in1012.2 mb - 0.00 in0.0 mm 0.04 in1.0 mm
05:45 PM 76.8°F24.9°C 76.5°F24.7°C 99% 4.6 mph WSW7.4 kmh WSW 8.1 mph13.0 kmh 29.89 in1012.2 mb - 0.00 in0.0 mm 0.04 in1.0 mm
05:50 PM 76.7°F24.8°C 76.4°F24.7°C 99% 3.5 mph SSW5.6 kmh SSW 3.5 mph5.6 kmh 29.89 in1012.2 mb - 0.00 in0.0 mm 0.04 in1.0 mm
05:55 PM 76.5°F24.7°C 76.2°F24.6°C 99% 5.8 mph SSW9.3 kmh SSW 6.9 mph11.1 kmh 29.89 in1012.2 mb - 0.00 in0.0 mm 0.04 in1.0 mm
06:00 PM 76.1°F24.5°C 75.8°F24.3°C 99% 4.6 mph SW7.4 kmh SW 5.8 mph9.3 kmh 29.89 in1012.2 mb - 0.00 in0.0 mm 0.04 in1.0 mm
06:10 PM 77.2°F25.1°C 76.9°F24.9°C 99% 2.3 mph SW3.7 kmh SW 3.5 mph5.6 kmh 29.93 in1013.5 mb - 0.00 in0.0 mm 0.04 in1.0 mm
06:15 PM 77.2°F25.1°C 76.3°F24.6°C 97% 2.3 mph WSW3.7 kmh WSW 3.5 mph5.6 kmh 29.87 in1011.5 mb - 0.00 in0.0 mm 0.04 in1.0 mm
06:20 PM 76.7°F24.8°C 75.8°F24.3°C 97% 3.5 mph W5.6 kmh W 4.6 mph7.4 kmh 29.87 in1011.5 mb - 0.00 in0.0 mm 0.04 in1.0 mm
06:25 PM 76.7°F24.8°C 75.8°F24.3°C 97% 4.6 mph W7.4 kmh W 4.6 mph7.4 kmh 29.87 in1011.5 mb - 0.00 in0.0 mm 0.04 in1.0 mm
06:30 PM 76.7°F24.8°C 76.1°F24.5°C 98% 2.3 mph SW3.7 kmh SW 4.6 mph7.4 kmh 29.84 in1010.5 mb - 0.00 in0.0 mm 0.04 in1.0 mm
06:35 PM 76.8°F24.9°C 75.9°F24.4°C 97% 3.5 mph WSW5.6 kmh WSW 5.8 mph9.3 kmh 29.84 in1010.5 mb - 0.00 in0.0 mm 0.04 in1.0 mm
06:40 PM 77.8°F25.4°C 76.9°F24.9°C 97% 3.5 mph SSW5.6 kmh SSW 3.5 mph5.6 kmh 29.81 in1009.5 mb - 0.00 in0.0 mm 0.04 in1.0 mm
06:45 PM 78.1°F25.6°C 77.2°F25.1°C 97% 3.5 mph WSW5.6 kmh WSW 5.8 mph9.3 kmh 29.81 in1009.5 mb - 0.00 in0.0 mm 0.04 in1.0 mm
06:50 PM 78.1°F25.6°C 77.5°F25.3°C 98% 4.6 mph SW7.4 kmh SW 5.8 mph9.3 kmh 29.80 in1009.1 mb - 0.00 in0.0 mm 0.04 in1.0 mm
06:55 PM 77.7°F25.4°C 77.4°F25.2°C 99% 4.6 mph S7.4 kmh S 4.6 mph7.4 kmh 29.79 in1008.8 mb - 0.00 in0.0 mm 0.04 in1.0 mm
07:00 PM 77.6°F25.3°C 77.3°F25.2°C 99% 3.5 mph SW5.6 kmh SW 3.5 mph5.6 kmh 29.79 in1008.8 mb - 0.00 in0.0 mm 0.04 in1.0 mm
07:10 PM 77.2°F25.1°C 76.9°F24.9°C 99% 3.5 mph SW5.6 kmh SW 4.6 mph7.4 kmh 29.76 in1007.8 mb - 0.00 in0.0 mm 0.04 in1.0 mm
07:15 PM 77.3°F25.2°C 77.0°F25.0°C 99% 3.5 mph SW5.6 kmh SW 5.8 mph9.3 kmh 29.80 in1009.1 mb - 0.00 in0.0 mm 0.04 in1.0 mm
07:20 PM 77.6°F25.3°C 77.3°F25.2°C 99% 3.5 mph S5.6 kmh S 3.5 mph5.6 kmh 29.80 in1009.1 mb - 0.00 in0.0 mm 0.04 in1.0 mm
07:25 PM 77.6°F25.3°C 77.0°F25.0°C 98% 3.5 mph SW5.6 kmh SW 4.6 mph7.4 kmh 29.80 in1009.1 mb - 0.00 in0.0 mm 0.04 in1.0 mm
07:30 PM 77.2°F25.1°C 76.6°F24.8°C 98% 4.6 mph SW7.4 kmh SW 4.6 mph7.4 kmh 29.86 in1011.2 mb - 0.00 in0.0 mm 0.04 in1.0 mm
07:35 PM 77.2°F25.1°C 76.6°F24.8°C 98% 2.3 mph S3.7 kmh S 5.8 mph9.3 kmh 29.86 in1011.2 mb - 0.00 in0.0 mm 0.04 in1.0 mm
07:40 PM 77.0°F25.0°C 76.7°F24.8°C 99% 3.5 mph SSW5.6 kmh SSW 4.6 mph7.4 kmh 29.94 in1013.9 mb - 0.00 in0.0 mm 0.04 in1.0 mm
07:45 PM 76.8°F24.9°C 76.5°F24.7°C 99% 3.5 mph S5.6 kmh S 4.6 mph7.4 kmh 29.94 in1013.9 mb - 0.00 in0.0 mm 0.04 in1.0 mm
07:50 PM 76.7°F24.8°C 76.4°F24.7°C 99% 2.3 mph WSW3.7 kmh WSW 3.5 mph5.6 kmh 29.96 in1014.6 mb - 0.00 in0.0 mm 0.04 in1.0 mm
07:55 PM 76.7°F24.8°C 76.4°F24.7°C 99% 3.5 mph SSW5.6 kmh SSW 4.6 mph7.4 kmh 30.01 in1016.3 mb - 0.00 in0.0 mm 0.04 in1.0 mm
08:00 PM 76.5°F24.7°C 76.2°F24.6°C 99% 3.5 mph SW5.6 kmh SW 3.5 mph5.6 kmh 30.01 in1016.3 mb - 0.00 in0.0 mm 0.04 in1.0 mm
08:10 PM 76.3°F24.6°C 76.0°F24.4°C 99% 3.5 mph SSE5.6 kmh SSE 3.5 mph5.6 kmh 30.06 in1017.9 mb - 0.00 in0.0 mm 0.04 in1.0 mm
08:15 PM 76.1°F24.5°C 75.8°F24.3°C 99% 2.3 mph WNW3.7 kmh WNW 3.5 mph5.6 kmh 30.14 in1020.7 mb - 0.00 in0.0 mm 0.04 in1.0 mm
08:20 PM 75.9°F24.4°C 75.6°F24.2°C 99% 4.6 mph SSW7.4 kmh SSW 6.9 mph11.1 kmh 30.14 in1020.7 mb - 0.00 in0.0 mm 0.04 in1.0 mm
08:25 PM 75.9°F24.4°C 75.6°F24.2°C 99% 3.5 mph SSW5.6 kmh SSW 5.8 mph9.3 kmh 30.14 in1020.7 mb - 0.00 in0.0 mm 0.04 in1.0 mm
08:30 PM 75.8°F24.3°C 75.5°F24.2°C 99% 4.6 mph W7.4 kmh W 4.6 mph7.4 kmh 30.05 in1017.6 mb - 0.00 in0.0 mm 0.04 in1.0 mm
08:35 PM 75.8°F24.3°C 75.5°F24.2°C 99% 3.5 mph WSW5.6 kmh WSW 5.8 mph9.3 kmh 30.05 in1017.6 mb - 0.00 in0.0 mm 0.04 in1.0 mm
08:40 PM 75.6°F24.2°C 75.3°F24.1°C 99% 3.5 mph SW5.6 kmh SW 5.8 mph9.3 kmh 29.93 in1013.5 mb - 0.00 in0.0 mm 0.04 in1.0 mm
08:45 PM 75.5°F24.2°C 75.2°F24.0°C 99% 2.3 mph SW3.7 kmh SW 3.5 mph5.6 kmh 29.93 in1013.5 mb - 0.00 in0.0 mm 0.04 in1.0 mm
08:50 PM 75.4°F24.1°C 75.1°F23.9°C 99% 3.5 mph WSW5.6 kmh WSW 5.8 mph9.3 kmh 29.86 in1011.2 mb - 0.00 in0.0 mm 0.04 in1.0 mm
08:55 PM 75.2°F24.0°C 74.9°F23.8°C 99% 3.5 mph SW5.6 kmh SW 3.5 mph5.6 kmh 29.86 in1011.2 mb - 0.00 in0.0 mm 0.04 in1.0 mm
09:00 PM 75.2°F24.0°C 74.9°F23.8°C 99% 2.3 mph SSW3.7 kmh SSW 4.6 mph7.4 kmh 29.86 in1011.2 mb - 0.00 in0.0 mm 0.04 in1.0 mm
09:10 PM 75.0°F23.9°C 74.7°F23.7°C 99% 3.5 mph SW5.6 kmh SW 3.5 mph5.6 kmh 29.80 in1009.1 mb - 0.00 in0.0 mm 0.04 in1.0 mm
09:15 PM 75.0°F23.9°C 74.7°F23.7°C 99% 3.5 mph SW5.6 kmh SW 3.5 mph5.6 kmh 29.77 in1008.1 mb - 0.00 in0.0 mm 0.04 in1.0 mm
09:20 PM 75.0°F23.9°C 74.7°F23.7°C 99% 3.5 mph WSW5.6 kmh WSW 4.6 mph7.4 kmh 29.77 in1008.1 mb - 0.00 in0.0 mm 0.04 in1.0 mm
09:25 PM 75.0°F23.9°C 74.7°F23.7°C 99% 3.5 mph SSW5.6 kmh SSW 4.6 mph7.4 kmh 29.77 in1008.1 mb - 0.00 in0.0 mm 0.04 in1.0 mm
09:30 PM 75.0°F23.9°C 74.7°F23.7°C 99% 2.3 mph SW3.7 kmh SW 3.5 mph5.6 kmh 29.74 in1007.1 mb - 0.00 in0.0 mm 0.04 in1.0 mm
09:35 PM 74.9°F23.8°C 74.6°F23.7°C 99% 2.3 mph SW3.7 kmh SW 1.2 mph1.9 kmh 29.74 in1007.1 mb - 0.00 in0.0 mm 0.04 in1.0 mm
09:40 PM 74.5°F23.6°C 74.2°F23.4°C 99% 2.3 mph E3.7 kmh E 2.3 mph3.7 kmh 29.72 in1006.4 mb - 0.00 in0.0 mm 0.04 in1.0 mm
09:45 PM 74.3°F23.5°C 74.0°F23.3°C 99% 2.3 mph E3.7 kmh E 3.5 mph5.6 kmh 29.72 in1006.4 mb - 0.00 in0.0 mm 0.04 in1.0 mm
09:50 PM 74.3°F23.5°C 74.0°F23.3°C 99% Calm Calm 2.3 mph3.7 kmh 29.70 in1005.8 mb - 0.00 in0.0 mm 0.04 in1.0 mm
09:55 PM 74.3°F23.5°C 74.0°F23.3°C 99% 2.3 mph N3.7 kmh N 2.3 mph3.7 kmh 29.69 in1005.4 mb - 0.00 in0.0 mm 0.04 in1.0 mm
10:00 PM 74.1°F23.4°C 73.8°F23.2°C 99% 1.2 mph NNE1.9 kmh NNE 3.5 mph5.6 kmh 29.69 in1005.4 mb - 0.00 in0.0 mm 0.04 in1.0 mm
10:10 PM 74.0°F23.3°C 73.7°F23.2°C 99% Calm Calm -- 29.63 in1003.4 mb - 0.00 in0.0 mm 0.04 in1.0 mm
10:15 PM 73.8°F23.2°C 73.5°F23.1°C 99% 1.2 mph SSW1.9 kmh SSW 2.3 mph3.7 kmh 29.54 in1000.3 mb - 0.00 in0.0 mm 0.04 in1.0 mm
10:20 PM 73.6°F23.1°C 73.3°F22.9°C 99% Calm Calm 2.3 mph3.7 kmh 29.54 in1000.3 mb - 0.00 in0.0 mm 0.04 in1.0 mm
10:25 PM 73.6°F23.1°C 73.3°F22.9°C 99% Calm Calm -- 29.51 in999.3 mb - 0.00 in0.0 mm 0.04 in1.0 mm
10:30 PM 73.4°F23.0°C 73.1°F22.8°C 99% Calm Calm -- 29.46 in997.6 mb - 0.00 in0.0 mm 0.04 in1.0 mm
10:35 PM 73.3°F22.9°C 73.0°F22.8°C 99% Calm Calm -- 29.46 in997.6 mb - 0.00 in0.0 mm 0.04 in1.0 mm
10:40 PM 73.4°F23.0°C 73.1°F22.8°C 99% Calm Calm -- 29.43 in996.6 mb - 0.00 in0.0 mm 0.04 in1.0 mm
10:45 PM 73.1°F22.8°C 72.8°F22.7°C 99% Calm Calm -- 29.43 in996.6 mb - 0.00 in0.0 mm 0.04 in1.0 mm
10:50 PM 73.1°F22.8°C 72.8°F22.7°C 99% Calm Calm -- 29.36 in994.2 mb - 0.00 in0.0 mm 0.04 in1.0 mm
10:55 PM 73.1°F22.8°C 72.8°F22.7°C 99% Calm Calm -- 29.34 in993.6 mb - 0.00 in0.0 mm 0.04 in1.0 mm
11:00 PM 72.9°F22.7°C 72.6°F22.6°C 99% Calm Calm -- 29.34 in993.6 mb - 0.00 in0.0 mm 0.04 in1.0 mm
11:10 PM 72.9°F22.7°C 72.6°F22.6°C 99% 2.3 mph W3.7 kmh W 2.3 mph3.7 kmh 29.32 in992.9 mb - 0.00 in0.0 mm 0.04 in1.0 mm
11:15 PM 72.9°F22.7°C 72.6°F22.6°C 99% 1.2 mph E1.9 kmh E 1.2 mph1.9 kmh 29.31 in992.6 mb - 0.00 in0.0 mm 0.04 in1.0 mm
11:20 PM 72.7°F22.6°C 72.4°F22.4°C 99% Calm Calm 1.2 mph1.9 kmh 29.31 in992.6 mb - 0.00 in0.0 mm 0.04 in1.0 mm
11:25 PM 72.7°F22.6°C 72.4°F22.4°C 99% 1.2 mph N1.9 kmh N 1.2 mph1.9 kmh 29.31 in992.6 mb - 0.00 in0.0 mm 0.04 in1.0 mm
11:30 PM 72.7°F22.6°C 72.4°F22.4°C 99% 1.2 mph WSW1.9 kmh WSW 2.3 mph3.7 kmh 29.30 in992.2 mb - 0.00 in0.0 mm 0.04 in1.0 mm
11:35 PM 72.7°F22.6°C 72.4°F22.4°C 99% 1.2 mph S1.9 kmh S 2.3 mph3.7 kmh 29.30 in992.2 mb - 0.00 in0.0 mm 0.04 in1.0 mm
11:40 PM 73.2°F22.9°C 72.9°F22.7°C 99% 2.3 mph SSW3.7 kmh SSW 2.3 mph3.7 kmh 29.34 in993.6 mb - 0.00 in0.0 mm 0.04 in1.0 mm
11:45 PM 73.2°F22.9°C 72.9°F22.7°C 99% 1.2 mph S1.9 kmh S 2.3 mph3.7 kmh 29.34 in993.6 mb - 0.00 in0.0 mm 0.04 in1.0 mm
11:50 PM 73.3°F22.9°C 73.0°F22.8°C 99% 2.3 mph SSW3.7 kmh SSW 3.5 mph5.6 kmh 29.35 in993.9 mb - 0.00 in0.0 mm 0.04 in1.0 mm
11:55 PM 73.5°F23.1°C 73.2°F22.9°C 99% 2.3 mph SSW3.7 kmh SSW 3.5 mph5.6 kmh 29.35 in993.9 mb - 0.00 in0.0 mm 0.04 in1.0 mm